createdAt,value
2023-12-28T00:01:56.109Z,8.40
2023-12-28T00:04:26.237Z,8.40
2023-12-28T00:06:54.804Z,8.30
2023-12-28T00:09:23.596Z,8.30
2023-12-28T00:11:52.134Z,8.30
2023-12-28T00:14:20.787Z,8.30
2023-12-28T00:16:49.375Z,8.20
2023-12-28T00:19:18.052Z,8.10
2023-12-28T00:21:47.937Z,8.10
2023-12-28T00:24:17.658Z,8.10
2023-12-28T00:26:46.228Z,8.20
2023-12-28T00:29:14.816Z,8.20
2023-12-28T00:31:43.874Z,8.20
2023-12-28T00:34:12.689Z,8.20
2023-12-28T00:36:41.281Z,8.20
2023-12-28T00:39:12.023Z,8.20
2023-12-28T00:41:40.598Z,8.20
2023-12-28T00:44:10.832Z,8.20
2023-12-28T00:46:39.766Z,8.20
2023-12-28T00:49:09.656Z,8.20
2023-12-28T00:51:38.373Z,8.20
2023-12-28T00:54:07.099Z,8.10
2023-12-28T00:56:37.014Z,8.10
2023-12-28T00:59:05.557Z,8.00
2023-12-28T01:01:34.048Z,8.00
2023-12-28T01:04:02.698Z,7.90
2023-12-28T01:06:31.344Z,7.80
2023-12-28T01:09:00.020Z,7.80
2023-12-28T01:11:28.522Z,7.70
2023-12-28T01:14:00.398Z,7.60
2023-12-28T01:16:29.008Z,7.40
2023-12-28T01:18:57.720Z,7.40
2023-12-28T01:21:26.847Z,7.30
2023-12-28T01:23:55.579Z,7.30
2023-12-28T01:26:24.149Z,7.20
2023-12-28T01:28:52.769Z,7.20
2023-12-28T01:31:22.743Z,7.10
2023-12-28T01:33:51.489Z,7.00
2023-12-28T01:36:20.510Z,6.90
2023-12-28T01:38:49.960Z,6.90
2023-12-28T01:41:18.671Z,6.90
2023-12-28T01:43:47.305Z,6.90
2023-12-28T01:46:18.698Z,6.90
2023-12-28T01:48:51.093Z,6.90
2023-12-28T01:51:22.639Z,6.90
2023-12-28T01:53:53.914Z,6.90
2023-12-28T01:56:23.166Z,6.80
2023-12-28T01:58:53.409Z,6.80
2023-12-28T02:01:22.693Z,6.70
2023-12-28T02:03:52.956Z,6.60
2023-12-28T02:06:25.810Z,6.50
2023-12-28T02:08:54.488Z,6.50
2023-12-28T02:11:23.158Z,6.50
2023-12-28T02:13:51.803Z,6.50
2023-12-28T02:16:27.597Z,6.50
2023-12-28T02:19:01.551Z,6.50
2023-12-28T02:21:31.355Z,6.40
2023-12-28T02:23:59.955Z,6.40
2023-12-28T02:26:29.755Z,6.40
2023-12-28T02:29:06.456Z,6.40
2023-12-28T02:31:45.013Z,6.30
2023-12-28T02:34:18.770Z,6.30
2023-12-28T02:36:50.455Z,6.30
2023-12-28T02:39:20.653Z,6.20
2023-12-28T02:41:49.177Z,6.10
2023-12-28T02:44:20.486Z,6.10
2023-12-28T02:46:49.072Z,6.00
2023-12-28T02:49:17.830Z,6.00
2023-12-28T02:51:46.584Z,6.00
2023-12-28T02:54:15.353Z,5.90
2023-12-28T02:56:43.892Z,5.90
2023-12-28T02:59:13.095Z,5.90
2023-12-28T03:01:43.198Z,5.90
2023-12-28T03:04:11.806Z,5.90
2023-12-28T03:06:42.208Z,5.90
2023-12-28T03:09:10.749Z,5.90
2023-12-28T03:11:39.291Z,5.90
2023-12-28T03:14:07.728Z,5.90
2023-12-28T03:16:36.287Z,5.90
2023-12-28T03:19:06.221Z,5.90
2023-12-28T03:21:35.005Z,5.90
2023-12-28T03:24:04.003Z,5.90
2023-12-28T03:26:32.730Z,5.80
2023-12-28T03:29:01.234Z,5.80
2023-12-28T03:31:29.857Z,5.70
2023-12-28T03:33:58.695Z,5.70
2023-12-28T03:36:28.769Z,5.70
2023-12-28T03:38:57.280Z,5.70
2023-12-28T03:41:25.888Z,5.70
2023-12-28T03:43:54.453Z,5.60
2023-12-28T03:46:23.108Z,5.60
2023-12-28T03:48:51.801Z,5.60
2023-12-28T03:51:20.501Z,5.50
2023-12-28T03:53:50.657Z,5.50
2023-12-28T03:56:24.380Z,5.50
2023-12-28T03:58:56.948Z,5.50
2023-12-28T04:01:25.956Z,5.50
2023-12-28T04:03:54.567Z,5.50
2023-12-28T04:06:23.293Z,5.50
2023-12-28T04:08:53.174Z,5.50
2023-12-28T04:11:21.763Z,5.50
2023-12-28T04:13:50.184Z,5.50
2023-12-28T04:16:19.134Z,5.40
2023-12-28T04:18:47.243Z,5.40
2023-12-28T04:21:16.408Z,5.40
2023-12-28T04:23:45.038Z,5.40
2023-12-28T04:26:15.082Z,5.40
2023-12-28T04:28:43.673Z,5.40
2023-12-28T04:31:12.411Z,5.50
2023-12-28T04:33:41.159Z,5.40
2023-12-28T04:36:10.870Z,5.50
2023-12-28T04:38:40.096Z,5.40
2023-12-28T04:41:08.855Z,5.40
2023-12-28T04:43:38.785Z,5.40
2023-12-28T04:46:06.720Z,5.40
2023-12-28T04:48:35.775Z,5.30
2023-12-28T04:51:07.054Z,5.30
2023-12-28T04:53:36.141Z,5.20
2023-12-28T04:56:04.918Z,5.30
2023-12-28T04:58:33.402Z,5.20
2023-12-28T05:01:05.482Z,5.20
2023-12-28T05:03:34.159Z,5.20
2023-12-28T05:06:04.631Z,5.20
2023-12-28T05:08:33.070Z,5.20
2023-12-28T05:11:02.373Z,5.20
2023-12-28T05:13:30.992Z,5.20
2023-12-28T05:16:00.506Z,5.30
2023-12-28T05:18:30.945Z,5.20
2023-12-28T05:20:59.492Z,5.30
2023-12-28T05:23:27.989Z,5.30
2023-12-28T05:25:56.679Z,5.30
2023-12-28T05:28:25.213Z,5.40
2023-12-28T05:30:53.973Z,5.30
2023-12-28T05:33:23.856Z,5.30
2023-12-28T05:35:53.840Z,5.30
2023-12-28T05:38:22.461Z,5.20
2023-12-28T05:40:50.898Z,5.20
2023-12-28T05:43:19.473Z,5.20
2023-12-28T05:45:48.016Z,5.10
2023-12-28T05:48:16.770Z,5.10
2023-12-28T05:50:45.416Z,5.10
2023-12-28T05:53:15.982Z,5.00
2023-12-28T05:55:44.507Z,5.00
2023-12-28T05:58:13.125Z,4.90
2023-12-28T06:00:41.649Z,4.90
2023-12-28T06:03:10.233Z,4.90
2023-12-28T06:05:38.820Z,4.80
2023-12-28T06:08:07.619Z,4.70
2023-12-28T06:10:37.616Z,4.70
2023-12-28T06:13:07.558Z,4.80
2023-12-28T06:15:36.064Z,4.80
2023-12-28T06:18:05.805Z,4.80
2023-12-28T06:20:34.957Z,4.90
2023-12-28T06:23:03.994Z,4.90
2023-12-28T06:25:32.490Z,4.90
2023-12-28T06:28:02.613Z,4.90
2023-12-28T06:30:31.495Z,4.90
2023-12-28T06:33:00.103Z,4.90
2023-12-28T06:35:28.655Z,5.00
2023-12-28T06:37:57.526Z,5.00
2023-12-28T06:40:26.167Z,5.10
2023-12-28T06:42:54.810Z,5.00
2023-12-28T06:45:29.247Z,5.00
2023-12-28T06:47:58.653Z,5.00
2023-12-28T06:50:27.465Z,5.00
2023-12-28T06:52:56.007Z,5.00
2023-12-28T06:55:24.467Z,4.90
2023-12-28T06:57:53.022Z,4.90
2023-12-28T07:00:22.016Z,4.80
2023-12-28T07:02:51.986Z,4.80
2023-12-28T07:05:20.535Z,4.80
2023-12-28T07:07:49.190Z,4.80
2023-12-28T07:10:17.834Z,4.80
2023-12-28T07:12:46.431Z,4.90
2023-12-28T07:15:16.111Z,4.90
2023-12-28T07:17:44.972Z,5.00
2023-12-28T07:20:15.131Z,5.00
2023-12-28T07:22:43.757Z,5.00
2023-12-28T07:25:12.852Z,5.10
2023-12-28T07:27:42.574Z,5.10
2023-12-28T07:30:11.962Z,5.20
2023-12-28T07:32:40.566Z,5.40
2023-12-28T07:35:09.577Z,5.90
2023-12-28T07:37:39.712Z,6.90
2023-12-28T07:40:09.502Z,7.80
2023-12-28T07:42:38.098Z,8.30
2023-12-28T07:45:07.309Z,8.70
2023-12-28T07:47:36.152Z,8.90
2023-12-28T07:50:05.717Z,8.90
2023-12-28T07:52:34.243Z,8.80
2023-12-28T07:55:04.155Z,8.60
2023-12-28T07:57:32.369Z,8.30
2023-12-28T08:00:01.015Z,8.20
2023-12-28T08:02:29.781Z,8.10
2023-12-28T08:04:58.353Z,8.00
2023-12-28T08:07:26.960Z,8.00
2023-12-28T08:09:55.861Z,8.00
2023-12-28T08:12:28.840Z,8.10
2023-12-28T08:14:57.824Z,8.20
2023-12-28T08:17:26.403Z,8.30
2023-12-28T08:19:55.054Z,8.40
2023-12-28T08:22:23.974Z,8.50
2023-12-28T08:24:52.714Z,8.50
2023-12-28T08:27:25.409Z,8.50
2023-12-28T08:29:53.944Z,8.60
2023-12-28T08:32:22.602Z,8.70
2023-12-28T08:34:52.069Z,8.90
2023-12-28T08:37:20.765Z,9.00
2023-12-28T08:39:49.341Z,9.20
2023-12-28T08:42:17.942Z,9.30
2023-12-28T08:44:49.641Z,9.50
2023-12-28T08:47:18.757Z,9.50
2023-12-28T08:49:47.425Z,9.60
2023-12-28T08:52:16.162Z,9.60
2023-12-28T08:54:44.880Z,9.70
2023-12-28T08:57:13.500Z,9.80
2023-12-28T08:59:42.432Z,9.90
2023-12-28T09:02:12.752Z,10.10
2023-12-28T09:04:41.230Z,10.30
2023-12-28T09:07:10.903Z,10.40
2023-12-28T09:09:39.509Z,10.60
2023-12-28T09:12:08.567Z,10.80
2023-12-28T09:14:37.230Z,10.90
2023-12-28T09:17:06.200Z,11.00
2023-12-28T09:19:36.232Z,11.10
2023-12-28T09:22:06.556Z,11.20
2023-12-28T09:24:35.116Z,11.30
2023-12-28T09:27:03.709Z,11.40
2023-12-28T09:29:32.240Z,11.50
2023-12-28T09:32:00.784Z,11.50
2023-12-28T09:34:29.336Z,11.60
2023-12-28T09:36:59.520Z,11.60
2023-12-28T09:39:28.197Z,11.60
2023-12-28T09:42:01.385Z,11.60
2023-12-28T09:44:31.191Z,11.60
2023-12-28T09:47:00.945Z,11.60
2023-12-28T09:49:30.483Z,11.50
2023-12-28T09:52:00.479Z,11.50
2023-12-28T09:54:29.053Z,11.50
2023-12-28T09:56:57.963Z,11.60
2023-12-28T09:59:28.136Z,11.60
2023-12-28T10:01:57.984Z,11.60
2023-12-28T10:04:26.993Z,11.70
2023-12-28T10:06:55.750Z,11.70
2023-12-28T10:09:28.111Z,11.80
2023-12-28T10:11:57.753Z,11.80
2023-12-28T10:14:26.431Z,11.80
2023-12-28T10:16:54.983Z,11.90
2023-12-28T10:19:25.201Z,11.90
2023-12-28T10:21:54.036Z,11.90
2023-12-28T10:24:22.783Z,12.00
2023-12-28T10:26:52.798Z,12.00
2023-12-28T10:29:21.389Z,12.00
2023-12-28T10:31:52.651Z,12.00
2023-12-28T10:34:21.696Z,12.00
2023-12-28T10:36:52.518Z,12.00
2023-12-28T10:39:23.158Z,12.10
2023-12-28T10:41:57.567Z,12.10
2023-12-28T10:44:30.216Z,12.00
2023-12-28T10:47:03.472Z,12.10
2023-12-28T10:49:35.745Z,12.20
2023-12-28T10:52:08.782Z,12.20
2023-12-28T10:54:49.458Z,12.10
2023-12-28T10:57:28.767Z,12.10
2023-12-28T11:00:05.383Z,12.10
2023-12-28T11:02:41.137Z,12.20
2023-12-28T11:05:10.380Z,12.20
2023-12-28T11:07:40.572Z,12.30
2023-12-28T11:10:11.686Z,12.30
2023-12-28T11:12:42.206Z,12.30
2023-12-28T11:15:13.074Z,12.40
2023-12-28T11:17:42.788Z,12.30
2023-12-28T11:20:12.481Z,12.30
2023-12-28T11:22:42.177Z,12.40
2023-12-28T11:25:17.896Z,12.40
2023-12-28T11:27:48.617Z,12.40
2023-12-28T11:30:17.481Z,12.40
2023-12-28T11:32:46.680Z,12.50
2023-12-28T11:35:16.336Z,12.50
2023-12-28T11:37:48.745Z,12.60
2023-12-28T11:40:21.208Z,12.70
2023-12-28T11:42:55.775Z,12.80
2023-12-28T11:45:26.448Z,12.80
2023-12-28T11:48:02.280Z,12.90
2023-12-28T11:50:30.984Z,13.00
2023-12-28T11:53:00.078Z,12.90
2023-12-28T11:55:28.798Z,13.00
2023-12-28T11:57:58.677Z,13.00
2023-12-28T12:00:27.775Z,13.00
2023-12-28T12:02:57.287Z,13.00
2023-12-28T12:05:26.330Z,13.00
2023-12-28T12:07:54.903Z,13.00
2023-12-28T12:10:23.841Z,13.00
2023-12-28T12:12:54.686Z,13.10
2023-12-28T12:15:24.833Z,13.20
2023-12-28T12:17:53.569Z,13.30
2023-12-28T12:20:23.012Z,13.30
2023-12-28T12:22:51.697Z,13.30
2023-12-28T12:25:21.102Z,13.40
2023-12-28T12:27:49.862Z,13.40
2023-12-28T12:30:18.616Z,13.30
2023-12-28T12:32:48.603Z,13.30
2023-12-28T12:35:18.941Z,13.20
2023-12-28T12:37:50.430Z,13.20
2023-12-28T12:40:21.867Z,13.30
2023-12-28T12:42:57.179Z,13.20
2023-12-28T12:45:26.706Z,13.40
2023-12-28T12:47:56.655Z,13.40
2023-12-28T12:50:25.230Z,13.40
2023-12-28T12:52:53.762Z,13.50
2023-12-28T12:55:23.151Z,13.50
2023-12-28T12:57:52.718Z,13.60
2023-12-28T13:00:22.549Z,13.70
2023-12-28T13:02:52.208Z,13.80
2023-12-28T13:05:22.426Z,13.90
2023-12-28T13:07:50.898Z,13.90
2023-12-28T13:10:19.494Z,13.80
2023-12-28T13:12:48.040Z,13.90
2023-12-28T13:15:16.733Z,13.80
2023-12-28T13:17:45.673Z,13.80
2023-12-28T13:20:15.305Z,13.70
2023-12-28T13:22:45.219Z,13.70
2023-12-28T13:25:14.006Z,13.70
2023-12-28T13:27:43.199Z,13.70
2023-12-28T13:30:13.264Z,13.60
2023-12-28T13:32:41.945Z,13.60
2023-12-28T13:35:10.676Z,13.50
2023-12-28T13:37:39.247Z,13.40
2023-12-28T13:40:11.041Z,13.30
2023-12-28T13:42:39.727Z,13.20
2023-12-28T13:45:09.262Z,13.10
2023-12-28T13:47:37.856Z,13.10
2023-12-28T13:50:07.762Z,13.00
2023-12-28T13:52:36.290Z,13.00
2023-12-28T13:55:05.316Z,13.00
2023-12-28T13:57:35.244Z,13.10
2023-12-28T14:00:04.060Z,13.10
2023-12-28T14:02:41.072Z,13.10
2023-12-28T14:05:10.048Z,13.00
2023-12-28T14:07:38.715Z,13.00
2023-12-28T14:10:08.431Z,13.00
2023-12-28T14:12:38.437Z,13.00
2023-12-28T14:15:08.671Z,13.00
2023-12-28T14:17:37.242Z,13.00
2023-12-28T14:20:08.184Z,12.90
2023-12-28T14:22:37.253Z,12.90
2023-12-28T14:25:06.826Z,12.90
2023-12-28T14:27:37.370Z,12.90
2023-12-28T14:30:09.526Z,12.90
2023-12-28T14:32:39.110Z,12.90
2023-12-28T14:35:09.171Z,12.90
2023-12-28T14:37:37.864Z,12.90
2023-12-28T14:40:07.883Z,12.90
2023-12-28T14:42:37.945Z,12.80
2023-12-28T14:45:07.644Z,12.80
2023-12-28T14:47:36.964Z,12.80
2023-12-28T14:50:07.724Z,12.70
2023-12-28T14:52:39.044Z,12.70
2023-12-28T14:55:08.245Z,12.70
2023-12-28T14:57:38.177Z,12.60
2023-12-28T15:00:11.352Z,12.60
2023-12-28T15:02:39.941Z,12.50
2023-12-28T15:05:11.718Z,12.50
2023-12-28T15:07:40.390Z,12.40
2023-12-28T15:10:10.500Z,12.40
2023-12-28T15:12:41.144Z,12.30
2023-12-28T15:15:11.234Z,12.20
2023-12-28T15:17:40.276Z,12.20
2023-12-28T15:20:10.629Z,12.10
2023-12-28T15:22:39.811Z,12.00
2023-12-28T15:25:08.799Z,11.90
2023-12-28T15:27:38.528Z,11.90
2023-12-28T15:30:10.233Z,11.80
2023-12-28T15:32:40.580Z,11.70
2023-12-28T15:35:10.655Z,11.70
2023-12-28T15:37:39.220Z,11.60
2023-12-28T15:40:08.969Z,11.60
2023-12-28T15:42:37.693Z,11.50
2023-12-28T15:45:08.844Z,11.50
2023-12-28T15:47:37.428Z,11.40
2023-12-28T15:50:06.939Z,11.30
2023-12-28T15:52:35.495Z,11.20
2023-12-28T15:55:04.365Z,11.10
2023-12-28T15:57:32.971Z,11.10
2023-12-28T16:00:02.241Z,11.00
2023-12-28T16:02:42.544Z,11.00
2023-12-28T16:05:11.699Z,10.80
2023-12-28T16:07:40.190Z,10.70
2023-12-28T16:10:10.200Z,10.70
2023-12-28T16:12:38.692Z,10.70
2023-12-28T16:15:09.038Z,10.70
2023-12-28T16:17:38.225Z,10.70
2023-12-28T16:20:10.128Z,10.70
2023-12-28T16:22:39.224Z,10.70
2023-12-28T16:25:08.554Z,10.70
2023-12-28T16:27:37.303Z,10.70
2023-12-28T16:30:07.033Z,10.70
2023-12-28T16:32:35.766Z,10.70
2023-12-28T16:35:04.580Z,10.80
2023-12-28T16:37:34.683Z,10.80
2023-12-28T16:40:03.287Z,10.70
2023-12-28T16:42:32.092Z,10.70
2023-12-28T16:45:01.137Z,10.70
2023-12-28T16:47:30.237Z,10.60
2023-12-28T16:49:58.910Z,10.50
2023-12-28T16:52:27.763Z,10.50
2023-12-28T16:54:57.817Z,10.50
2023-12-28T16:57:26.783Z,10.50
2023-12-28T17:00:06.911Z,10.40
2023-12-28T17:02:40.029Z,10.50
2023-12-28T17:05:11.559Z,10.40
2023-12-28T17:07:40.560Z,10.40
2023-12-28T17:10:11.874Z,10.40
2023-12-28T17:12:43.105Z,10.30
2023-12-28T17:15:13.474Z,10.20
2023-12-28T17:17:44.024Z,10.20
2023-12-28T17:20:14.265Z,10.10
2023-12-28T17:22:46.670Z,10.10
2023-12-28T17:25:29.181Z,10.00
2023-12-28T17:27:59.916Z,9.90
2023-12-28T17:30:31.035Z,9.90
2023-12-28T17:33:01.355Z,9.90
2023-12-28T17:35:30.942Z,9.90
2023-12-28T17:38:01.087Z,9.80
2023-12-28T17:40:32.189Z,9.80
2023-12-28T17:43:03.230Z,9.70
2023-12-28T17:45:41.778Z,9.60
2023-12-28T17:48:15.299Z,9.60
2023-12-28T17:50:44.286Z,9.50
2023-12-28T17:53:13.649Z,9.50
2023-12-28T17:55:43.740Z,9.50
2023-12-28T17:58:12.265Z,9.50
2023-12-28T18:00:41.076Z,9.40
2023-12-28T18:03:09.638Z,9.40
2023-12-28T18:05:38.398Z,9.30
2023-12-28T18:08:08.391Z,9.30
2023-12-28T18:10:36.892Z,9.20
2023-12-28T18:13:08.591Z,9.20
2023-12-28T18:15:38.632Z,9.20
2023-12-28T18:18:07.891Z,9.10
2023-12-28T18:20:36.462Z,9.10
2023-12-28T18:23:05.235Z,9.10
2023-12-28T18:25:33.655Z,9.00
2023-12-28T18:28:02.821Z,9.00
2023-12-28T18:30:33.091Z,9.00
2023-12-28T18:33:01.921Z,8.90
2023-12-28T18:35:31.136Z,8.90
2023-12-28T18:37:59.745Z,8.90
2023-12-28T18:40:28.260Z,9.00
2023-12-28T18:42:56.904Z,9.00
2023-12-28T18:45:25.492Z,9.00
2023-12-28T18:47:55.251Z,8.90
2023-12-28T18:50:23.808Z,8.80
2023-12-28T18:52:52.076Z,8.80
2023-12-28T18:55:20.564Z,8.70
2023-12-28T18:57:51.248Z,8.70
2023-12-28T19:00:22.013Z,8.70
2023-12-28T19:02:50.552Z,8.70
2023-12-28T19:05:21.493Z,8.70
2023-12-28T19:07:50.255Z,8.60
2023-12-28T19:10:19.093Z,8.60
2023-12-28T19:12:48.828Z,8.60
2023-12-28T19:15:18.559Z,8.60
2023-12-28T19:17:47.558Z,8.60
2023-12-28T19:20:16.386Z,8.60
2023-12-28T19:22:46.305Z,8.70
2023-12-28T19:25:17.269Z,8.70
2023-12-28T19:27:46.160Z,8.70
2023-12-28T19:30:15.699Z,8.70
2023-12-28T19:32:44.373Z,8.70
2023-12-28T19:35:13.379Z,8.60
2023-12-28T19:37:42.046Z,8.60
2023-12-28T19:40:12.939Z,8.60
2023-12-28T19:42:41.559Z,8.60
2023-12-28T19:45:10.755Z,8.60
2023-12-28T19:47:39.351Z,8.70
2023-12-28T19:50:09.108Z,8.70
2023-12-28T19:52:37.651Z,8.70
2023-12-28T19:55:06.765Z,8.60
2023-12-28T19:57:36.824Z,8.60
2023-12-28T20:00:07.076Z,8.50
2023-12-28T20:02:35.816Z,8.50
2023-12-28T20:05:04.538Z,8.50
2023-12-28T20:07:33.198Z,8.50
2023-12-28T20:10:02.109Z,8.50
2023-12-28T20:12:30.923Z,8.50
2023-12-28T20:15:01.637Z,8.50
2023-12-28T20:17:30.299Z,8.50
2023-12-28T20:20:00.933Z,8.50
2023-12-28T20:22:30.055Z,8.50
2023-12-28T20:24:58.664Z,8.50
2023-12-28T20:27:27.171Z,8.40
2023-12-28T20:29:56.565Z,8.40
2023-12-28T20:32:27.761Z,8.30
2023-12-28T20:34:56.460Z,8.30
2023-12-28T20:37:25.321Z,8.30
2023-12-28T20:39:53.886Z,8.30
2023-12-28T20:42:22.954Z,8.30
2023-12-28T20:44:51.444Z,8.30
2023-12-28T20:47:20.133Z,8.20
2023-12-28T20:49:50.366Z,8.20
2023-12-28T20:52:19.047Z,8.20
2023-12-28T20:54:47.520Z,8.20
2023-12-28T20:57:16.184Z,8.20
2023-12-28T20:59:46.686Z,8.10
2023-12-28T21:02:15.416Z,8.10
2023-12-28T21:04:44.024Z,8.00
2023-12-28T21:07:14.226Z,8.00
2023-12-28T21:09:43.453Z,8.00
2023-12-28T21:12:13.652Z,8.00
2023-12-28T21:14:42.168Z,7.90
2023-12-28T21:17:12.095Z,7.90
2023-12-28T21:19:47.212Z,7.90
2023-12-28T21:22:19.065Z,7.80
2023-12-28T21:24:47.696Z,7.80
2023-12-28T21:27:16.480Z,7.80
2023-12-28T21:29:45.019Z,7.70
2023-12-28T21:32:13.979Z,7.70
2023-12-28T21:34:43.405Z,7.70
2023-12-28T21:37:12.841Z,7.60
2023-12-28T21:39:43.876Z,7.60
2023-12-28T21:42:12.564Z,7.50
2023-12-28T21:44:41.113Z,7.40
2023-12-28T21:47:15.308Z,7.30
2023-12-28T21:49:44.444Z,7.30
2023-12-28T21:52:15.778Z,7.30
2023-12-28T21:54:45.970Z,7.30
2023-12-28T21:57:14.622Z,7.30
2023-12-28T21:59:43.045Z,7.30
2023-12-28T22:02:11.689Z,7.20
2023-12-28T22:04:40.640Z,7.20
2023-12-28T22:07:10.925Z,7.20
2023-12-28T22:09:40.224Z,7.20
2023-12-28T22:12:10.621Z,7.20
2023-12-28T22:14:39.400Z,7.20
2023-12-28T22:17:07.966Z,7.30
2023-12-28T22:19:36.498Z,7.20
2023-12-28T22:22:05.602Z,7.20
2023-12-28T22:24:34.187Z,7.20
2023-12-28T22:27:02.946Z,7.20
2023-12-28T22:29:32.920Z,7.20
2023-12-28T22:32:01.697Z,7.20
2023-12-28T22:34:30.603Z,7.10
2023-12-28T22:36:59.220Z,7.10
2023-12-28T22:39:28.416Z,7.10
2023-12-28T22:41:56.970Z,7.20
2023-12-28T22:44:25.482Z,7.20
2023-12-28T22:46:55.392Z,7.30
2023-12-28T22:49:24.142Z,7.30
2023-12-28T22:51:52.778Z,7.30
2023-12-28T22:54:20.450Z,7.20
2023-12-28T22:56:49.582Z,7.20
2023-12-28T22:59:18.536Z,7.20
2023-12-28T23:01:47.025Z,7.20
2023-12-28T23:04:17.081Z,7.20
2023-12-28T23:06:46.003Z,7.20
2023-12-28T23:09:15.020Z,7.30
2023-12-28T23:11:43.554Z,7.30
2023-12-28T23:14:12.126Z,7.30
2023-12-28T23:16:40.638Z,7.30
2023-12-28T23:19:09.423Z,7.30
2023-12-28T23:21:39.502Z,7.30
2023-12-28T23:24:08.762Z,7.30
2023-12-28T23:26:37.191Z,7.30
2023-12-28T23:29:05.710Z,7.20
2023-12-28T23:31:34.224Z,7.10
2023-12-28T23:34:06.749Z,7.10
2023-12-28T23:36:39.445Z,7.00
2023-12-28T23:39:10.093Z,7.00
2023-12-28T23:41:38.675Z,7.00
2023-12-28T23:44:07.153Z,6.90
2023-12-28T23:46:39.452Z,7.00
2023-12-28T23:49:08.122Z,7.00
2023-12-28T23:51:38.258Z,7.10
2023-12-28T23:54:06.992Z,7.00
2023-12-28T23:56:36.049Z,7.00
2023-12-28T23:59:04.682Z,7.00
